Time;durP1;ratioP1;P1;durP2;ratioP2;P2;SDS_P1;SDS_P2;PMS_P1;PMS_P2;Temp;Humidity;BMP_temperature;BMP_pressure;BME280_temperature;BME280_humidity;BME280_pressure;Samples;Min_cycle;Max_cycle;Signal;HPM_P1;HPM_P2
2023/08/13 00:00:17;;;;;;;;;;;21.00;99.90;;;;;;2054868;28;19918;-81
2023/08/13 00:01:17;;;;;;;;;;;21.00;99.90;;;;;;2058399;28;19914;-81
2023/08/13 00:02:18;;;;;;;;;;;21.00;99.90;;;;;;2058331;28;19914;-81
2023/08/13 00:03:18;;;;;;;;;;;21.00;99.90;;;;;;2060449;28;20386;-81
2023/08/13 00:04:19;;;;;;;;;;;20.90;99.90;;;;;;2058562;28;19918;-82
2023/08/13 00:05:20;;;;;;;;;;;20.90;99.90;;;;;;2058496;28;20518;-82
2023/08/13 00:06:21;;;;;;;;;;;20.90;99.90;;;;;;2053405;28;20534;-82
2023/08/13 00:07:21;;;;;;;;;;;20.90;99.90;;;;;;2057194;28;20309;-81
2023/08/13 00:08:22;;;;;;;;;;;20.90;99.90;;;;;;2059728;28;19914;-81
2023/08/13 00:09:22;;;;;;;;;;;20.90;99.90;;;;;;2058091;28;19918;-81
2023/08/13 00:10:23;;;;;;;;;;;20.90;99.90;;;;;;2054888;28;19910;-81
2023/08/13 00:11:23;;;;;;;;;;;20.90;99.90;;;;;;2058693;28;20197;-81
2023/08/13 00:12:24;;;;;;;;;;;20.80;99.90;;;;;;2050053;28;19918;-81
2023/08/13 00:13:24;;;;;;;;;;;20.80;99.90;;;;;;2046645;28;19966;-82
2023/08/13 00:14:25;;;;;;;;;;;20.80;99.90;;;;;;2055721;28;19953;-82
2023/08/13 00:15:25;;;;;;;;;;;20.80;99.90;;;;;;2050265;28;20674;-81
2023/08/13 00:16:26;;;;;;;;;;;20.80;99.90;;;;;;2031784;28;19961;-79
2023/08/13 00:17:27;;;;;;;;;;;20.80;99.90;;;;;;2040807;29;19974;-80
2023/08/13 00:18:28;;;;;;;;;;;20.80;99.90;;;;;;2051513;28;20286;-79
2023/08/13 00:19:28;;;;;;;;;;;20.80;99.90;;;;;;2057594;28;20012;-80
2023/08/13 00:20:30;;;;;;;;;;;20.80;99.90;;;;;;2052779;28;20008;-80
2023/08/13 00:21:30;;;;;;;;;;;20.70;99.90;;;;;;2054503;28;19951;-79
2023/08/13 00:22:31;;;;;;;;;;;20.70;99.90;;;;;;2061059;28;19924;-79
2023/08/13 00:23:32;;;;;;;;;;;20.70;99.90;;;;;;2058187;28;20820;-80
2023/08/13 00:24:32;;;;;;;;;;;20.70;99.90;;;;;;2057000;28;20179;-79
2023/08/13 00:25:33;;;;;;;;;;;20.70;99.90;;;;;;2055109;28;19948;-79
2023/08/13 00:26:34;;;;;;;;;;;20.70;99.90;;;;;;2060468;28;19922;-81
2023/08/13 00:27:34;;;;;;;;;;;20.70;99.90;;;;;;2058287;28;19922;-80
2023/08/13 00:28:35;;;;;;;;;;;20.70;99.90;;;;;;2058296;28;19913;-81
2023/08/13 00:29:37;;;;;;;;;;;20.70;99.90;;;;;;2058211;28;19917;-81
2023/08/13 00:30:38;;;;;;;;;;;20.70;99.90;;;;;;2056365;28;19925;-80
2023/08/13 00:31:38;;;;;;;;;;;20.70;99.90;;;;;;2051251;28;19929;-80
2023/08/13 00:32:39;;;;;;;;;;;20.70;99.90;;;;;;2056440;28;19917;-80
2023/08/13 00:33:39;;;;;;;;;;;20.70;99.90;;;;;;2050423;28;19918;-79
2023/08/13 00:34:40;;;;;;;;;;;20.70;99.90;;;;;;2047671;28;20012;-79
2023/08/13 00:35:40;;;;;;;;;;;20.70;99.90;;;;;;2053772;28;20393;-81
2023/08/13 00:36:41;;;;;;;;;;;20.70;99.90;;;;;;2058934;28;19941;-80
2023/08/13 00:37:42;;;;;;;;;;;20.70;99.90;;;;;;2049586;28;19918;-80
2023/08/13 00:38:42;;;;;;;;;;;20.70;99.90;;;;;;2051932;28;19950;-80
2023/08/13 00:39:43;;;;;;;;;;;20.60;99.90;;;;;;2057564;28;19926;-80
2023/08/13 00:40:43;;;;;;;;;;;20.60;99.90;;;;;;2058399;28;19921;-80
2023/08/13 00:41:44;;;;;;;;;;;20.60;99.90;;;;;;2058669;28;20029;-77
2023/08/13 00:42:44;;;;;;;;;;;20.60;99.90;;;;;;2056552;28;20141;-80
2023/08/13 00:43:44;;;;;;;;;;;20.60;99.90;;;;;;2057908;28;19929;-80
2023/08/13 00:44:45;;;;;;;;;;;20.60;99.90;;;;;;2059005;28;19918;-79
2023/08/13 00:45:46;;;;;;;;;;;20.60;99.90;;;;;;2058106;28;19918;-71
2023/08/13 00:46:46;;;;;;;;;;;20.60;99.90;;;;;;2059840;28;20326;-79
2023/08/13 00:47:47;;;;;;;;;;;20.60;99.90;;;;;;2058618;28;20040;-73
2023/08/13 00:48:53;;;;;;;;;;;20.60;99.90;;;;;;2057939;28;20000;-78
2023/08/13 00:49:54;;;;;;;;;;;20.60;99.90;;;;;;2059120;28;19968;-80
2023/08/13 00:50:55;;;;;;;;;;;20.60;99.90;;;;;;2060299;28;20328;-78
2023/08/13 00:51:56;;;;;;;;;;;20.60;99.90;;;;;;2052052;28;20001;-80
2023/08/13 00:52:56;;;;;;;;;;;20.70;99.90;;;;;;2050060;28;19925;-80
2023/08/13 00:53:58;;;;;;;;;;;20.70;99.90;;;;;;2057322;28;20369;-81
2023/08/13 00:54:59;;;;;;;;;;;20.70;99.90;;;;;;2058332;28;19914;-80
2023/08/13 00:55:59;;;;;;;;;;;20.70;99.90;;;;;;2045608;28;19971;-80
2023/08/13 00:57:00;;;;;;;;;;;20.70;99.90;;;;;;2044089;28;19915;-80
2023/08/13 00:58:01;;;;;;;;;;;20.70;99.90;;;;;;2053811;28;19974;-80
2023/08/13 00:59:02;;;;;;;;;;;20.60;99.90;;;;;;2050387;28;20420;-81
2023/08/13 01:00:06;;;;;;;;;;;20.60;99.90;;;;;;2056814;28;19918;-80
2023/08/13 01:01:07;;;;;;;;;;;20.60;99.90;;;;;;2059753;28;19961;-80
2023/08/13 01:02:07;;;;;;;;;;;20.60;99.90;;;;;;2058713;28;20119;-79
2023/08/13 01:03:08;;;;;;;;;;;20.60;99.90;;;;;;2058104;28;20001;-79
2023/08/13 01:04:09;;;;;;;;;;;20.60;99.90;;;;;;2058233;28;20418;-80
2023/08/13 01:05:09;;;;;;;;;;;20.60;99.90;;;;;;2059142;28;20052;-80
2023/08/13 01:06:14;;;;;;;;;;;20.60;99.90;;;;;;2057892;28;19926;-80
2023/08/13 01:07:36;;;;;;;;;;;20.60;99.90;;;;;;2052836;28;19973;-78
2023/08/13 01:08:43;;;;;;;;;;;20.60;99.90;;;;;;2059456;28;19956;-80
2023/08/13 01:10:04;;;;;;;;;;;20.60;99.90;;;;;;2056681;28;19922;-80
2023/08/13 01:11:08;;;;;;;;;;;20.60;99.90;;;;;;2049700;28;20400;-80
2023/08/13 01:12:18;;;;;;;;;;;20.60;99.90;;;;;;2046783;28;19987;-81
2023/08/13 01:13:23;;;;;;;;;;;20.60;99.90;;;;;;2047379;28;19926;-82
2023/08/13 01:14:27;;;;;;;;;;;20.60;99.90;;;;;;2058293;28;19914;-80
2023/08/13 01:15:28;;;;;;;;;;;20.60;99.90;;;;;;2059714;28;19992;-80
2023/08/13 01:16:29;;;;;;;;;;;20.60;99.90;;;;;;2061528;28;19921;-80
2023/08/13 01:17:30;;;;;;;;;;;20.60;99.90;;;;;;2058086;28;20610;-79
2023/08/13 01:18:32;;;;;;;;;;;20.70;99.90;;;;;;2058289;28;19918;-82
2023/08/13 01:19:32;;;;;;;;;;;20.70;99.90;;;;;;2059109;28;19961;-82
2023/08/13 01:20:36;;;;;;;;;;;20.70;99.90;;;;;;2056438;28;20037;-80
2023/08/13 01:21:38;;;;;;;;;;;20.60;99.90;;;;;;2053547;28;19918;-82
2023/08/13 01:22:39;;;;;;;;;;;20.60;99.90;;;;;;2056284;28;19921;-81
2023/08/13 01:23:39;;;;;;;;;;;20.60;99.90;;;;;;2059034;28;19918;-82
2023/08/13 01:24:40;;;;;;;;;;;20.70;99.90;;;;;;2064549;28;20403;-81
2023/08/13 01:25:47;;;;;;;;;;;20.70;99.90;;;;;;2052326;28;19960;-80
2023/08/13 01:26:59;;;;;;;;;;;20.60;99.90;;;;;;2061144;28;19921;-80
2023/08/13 01:28:02;;;;;;;;;;;20.60;99.90;;;;;;2057967;28;19976;-79
2023/08/13 01:29:09;;;;;;;;;;;20.60;99.90;;;;;;2057576;28;20382;-80
2023/08/13 01:30:20;;;;;;;;;;;20.60;99.90;;;;;;2053309;28;20101;-80
2023/08/13 01:31:25;;;;;;;;;;;20.60;99.90;;;;;;2045237;28;19950;-81
2023/08/13 01:32:29;;;;;;;;;;;20.60;99.90;;;;;;2060283;28;21534;-80
2023/08/13 01:33:31;;;;;;;;;;;20.60;99.90;;;;;;2059598;28;19983;-81
2023/08/13 01:34:31;;;;;;;;;;;20.60;99.90;;;;;;2059666;28;19925;-80
2023/08/13 01:35:32;;;;;;;;;;;20.60;99.90;;;;;;2060372;28;19949;-80
2023/08/13 01:36:33;;;;;;;;;;;20.60;99.90;;;;;;2064424;28;19920;-80
2023/08/13 01:37:34;;;;;;;;;;;20.60;99.90;;;;;;2056445;28;19920;-80
2023/08/13 01:38:35;;;;;;;;;;;20.60;99.90;;;;;;2052341;28;20484;-78
2023/08/13 01:39:37;;;;;;;;;;;20.70;99.90;;;;;;2045615;28;19917;-78
2023/08/13 01:40:38;;;;;;;;;;;20.60;99.90;;;;;;2049104;28;19942;-79
2023/08/13 01:41:52;;;;;;;;;;;20.70;99.90;;;;;;2055517;28;20302;-78
2023/08/13 01:42:53;;;;;;;;;;;20.60;99.90;;;;;;2053697;28;19957;-80
2023/08/13 01:43:54;;;;;;;;;;;20.60;99.90;;;;;;2063291;28;20244;-80
2023/08/13 01:44:54;;;;;;;;;;;20.60;99.90;;;;;;2052733;28;20385;-80
2023/08/13 01:45:55;;;;;;;;;;;20.60;99.90;;;;;;2053447;28;19937;-80
2023/08/13 01:46:56;;;;;;;;;;;20.60;99.90;;;;;;2058794;28;19918;-80
2023/08/13 01:47:56;;;;;;;;;;;20.60;99.90;;;;;;2061384;28;20321;-81
2023/08/13 01:48:58;;;;;;;;;;;20.60;99.90;;;;;;2062330;28;19960;-79
2023/08/13 01:49:58;;;;;;;;;;;20.60;99.90;;;;;;2053949;28;20034;-79
2023/08/13 01:50:59;;;;;;;;;;;20.60;99.90;;;;;;2047167;28;20037;-80
2023/08/13 01:52:00;;;;;;;;;;;20.60;99.90;;;;;;2051496;28;19914;-80
2023/08/13 01:53:02;;;;;;;;;;;20.60;99.90;;;;;;2052204;28;20401;-79
2023/08/13 01:54:03;;;;;;;;;;;20.60;99.90;;;;;;2058409;28;19954;-80
2023/08/13 01:55:04;;;;;;;;;;;20.60;99.90;;;;;;2056109;28;19918;-79
2023/08/13 01:56:04;;;;;;;;;;;20.60;99.90;;;;;;2047849;28;19918;-79
2023/08/13 01:57:04;;;;;;;;;;;20.60;99.90;;;;;;2043262;28;19970;-78
2023/08/13 01:58:05;;;;;;;;;;;20.60;99.90;;;;;;2057580;28;19913;-79
2023/08/13 01:59:06;;;;;;;;;;;20.60;99.90;;;;;;2051180;28;19919;-78
2023/08/13 02:00:07;;;;;;;;;;;20.70;99.90;;;;;;2035331;28;19925;-79
2023/08/13 02:01:07;;;;;;;;;;;20.70;99.90;;;;;;2051545;28;19922;-79
2023/08/13 02:02:08;;;;;;;;;;;20.70;99.90;;;;;;2053623;28;20313;-78
2023/08/13 02:03:10;;;;;;;;;;;20.70;99.90;;;;;;2046647;28;20291;-78
2023/08/13 02:04:11;;;;;;;;;;;20.70;99.90;;;;;;2045265;28;19922;-78
2023/08/13 02:05:11;;;;;;;;;;;20.70;99.90;;;;;;2051147;28;19968;-77
2023/08/13 02:06:12;;;;;;;;;;;20.70;99.90;;;;;;2058052;28;19918;-79
2023/08/13 02:07:12;;;;;;;;;;;20.70;99.90;;;;;;2051268;28;20412;-77
2023/08/13 02:08:13;;;;;;;;;;;20.70;99.90;;;;;;2048537;28;19989;-79
2023/08/13 02:09:13;;;;;;;;;;;20.80;99.90;;;;;;2058657;28;19953;-80
2023/08/13 02:10:14;;;;;;;;;;;20.70;99.90;;;;;;2057187;28;19956;-80
2023/08/13 02:11:15;;;;;;;;;;;20.80;99.90;;;;;;2059313;28;19969;-81
2023/08/13 02:12:15;;;;;;;;;;;20.80;99.90;;;;;;2054723;28;20411;-80
2023/08/13 02:13:16;;;;;;;;;;;20.80;99.90;;;;;;2061256;28;19957;-82
2023/08/13 02:14:16;;;;;;;;;;;20.80;99.90;;;;;;2059450;28;20392;-81
2023/08/13 02:15:17;;;;;;;;;;;20.80;99.90;;;;;;2051402;28;20206;-81
2023/08/13 02:16:19;;;;;;;;;;;20.80;99.90;;;;;;2059460;28;19972;-79
2023/08/13 02:17:19;;;;;;;;;;;20.80;99.90;;;;;;2057480;28;20359;-80
2023/08/13 02:18:20;;;;;;;;;;;20.80;99.90;;;;;;2054786;28;20507;-80
2023/08/13 02:19:20;;;;;;;;;;;20.80;99.90;;;;;;2063142;28;19917;-79
2023/08/13 02:20:21;;;;;;;;;;;20.80;99.90;;;;;;2059143;28;19913;-79
2023/08/13 02:21:21;;;;;;;;;;;20.80;99.90;;;;;;2058970;28;20364;-81
2023/08/13 02:22:22;;;;;;;;;;;20.80;99.90;;;;;;2060840;28;19922;-82
2023/08/13 02:23:22;;;;;;;;;;;20.80;99.90;;;;;;2059079;28;19976;-81
2023/08/13 02:24:23;;;;;;;;;;;20.80;99.90;;;;;;2060147;28;19971;-78
2023/08/13 02:25:23;;;;;;;;;;;20.80;99.90;;;;;;2059866;28;19972;-77
2023/08/13 02:26:24;;;;;;;;;;;20.80;99.90;;;;;;2061675;28;20067;-80
2023/08/13 02:27:24;;;;;;;;;;;20.80;99.90;;;;;;2050995;28;19969;-81
2023/08/13 02:28:25;;;;;;;;;;;20.80;99.90;;;;;;2050942;28;19914;-82
2023/08/13 02:29:25;;;;;;;;;;;20.80;99.90;;;;;;2054991;28;20462;-81
2023/08/13 02:30:28;;;;;;;;;;;20.80;99.90;;;;;;2053903;28;19918;-80
2023/08/13 02:31:28;;;;;;;;;;;20.80;99.90;;;;;;2055352;28;20202;-81
2023/08/13 02:32:29;;;;;;;;;;;20.80;99.90;;;;;;2053257;28;19941;-81
2023/08/13 02:33:29;;;;;;;;;;;20.80;99.90;;;;;;2050796;28;20448;-82
2023/08/13 02:34:33;;;;;;;;;;;20.80;99.90;;;;;;2042937;28;19966;-82
2023/08/13 02:35:34;;;;;;;;;;;20.80;99.90;;;;;;2044382;28;19918;-81
2023/08/13 02:36:34;;;;;;;;;;;20.80;99.90;;;;;;2072579;28;20012;-81
2023/08/13 02:37:36;;;;;;;;;;;20.80;99.90;;;;;;2060237;28;19941;-81
2023/08/13 02:38:37;;;;;;;;;;;20.80;99.90;;;;;;2046654;28;20433;-80
2023/08/13 02:39:38;;;;;;;;;;;20.80;99.90;;;;;;2061148;28;19917;-81
2023/08/13 02:40:38;;;;;;;;;;;20.80;99.90;;;;;;2052900;28;19960;-81
2023/08/13 02:41:39;;;;;;;;;;;20.80;99.90;;;;;;2043325;28;19973;-81
2023/08/13 02:42:39;;;;;;;;;;;20.80;99.90;;;;;;2051014;28;19925;-81
2023/08/13 02:43:53;;;;;;;;;;;20.80;99.90;;;;;;2052453;28;19914;-80
2023/08/13 02:44:54;;;;;;;;;;;20.80;99.90;;;;;;2055266;28;19969;-81
2023/08/13 02:45:54;;;;;;;;;;;20.80;99.90;;;;;;2059826;28;20444;-80
2023/08/13 02:46:55;;;;;;;;;;;20.80;99.90;;;;;;2056259;28;19921;-81
2023/08/13 02:47:57;;;;;;;;;;;20.80;99.90;;;;;;2059849;28;20041;-81
2023/08/13 02:48:58;;;;;;;;;;;20.80;99.90;;;;;;2059841;28;19920;-81
2023/08/13 02:50:00;;;;;;;;;;;20.80;99.90;;;;;;2058979;28;19917;-81
2023/08/13 02:51:00;;;;;;;;;;;20.80;99.90;;;;;;2052720;28;19929;-81
2023/08/13 02:52:02;;;;;;;;;;;20.80;99.90;;;;;;2054605;28;20146;-80
2023/08/13 02:53:02;;;;;;;;;;;20.80;99.90;;;;;;2059775;28;19922;-82
2023/08/13 02:54:03;;;;;;;;;;;20.70;99.90;;;;;;2059259;28;20439;-81
2023/08/13 02:55:04;;;;;;;;;;;20.70;99.90;;;;;;2052730;28;20020;-82
2023/08/13 02:56:04;;;;;;;;;;;20.70;99.90;;;;;;2056265;28;19949;-81
2023/08/13 02:57:05;;;;;;;;;;;20.70;99.90;;;;;;2061690;28;19913;-82
2023/08/13 02:58:05;;;;;;;;;;;20.70;99.90;;;;;;2061097;28;19913;-81
2023/08/13 02:59:06;;;;;;;;;;;20.70;99.90;;;;;;2069132;28;19928;-81
2023/08/13 03:00:08;;;;;;;;;;;20.70;99.90;;;;;;2059015;28;19918;-82
2023/08/13 03:01:09;;;;;;;;;;;20.70;99.90;;;;;;2059323;28;19968;-82
2023/08/13 03:02:09;;;;;;;;;;;20.70;99.90;;;;;;2059249;28;20421;-81
2023/08/13 03:03:10;;;;;;;;;;;20.70;99.90;;;;;;2058937;28;19920;-81
2023/08/13 03:04:11;;;;;;;;;;;20.60;99.90;;;;;;2060741;28;19997;-80
2023/08/13 03:05:11;;;;;;;;;;;20.60;99.90;;;;;;2061010;28;19914;-82
2023/08/13 03:06:12;;;;;;;;;;;20.60;99.90;;;;;;2064130;28;20055;-82
2023/08/13 03:07:12;;;;;;;;;;;20.70;99.90;;;;;;2057923;28;19918;-83
2023/08/13 03:08:13;;;;;;;;;;;20.70;99.90;;;;;;2058287;28;19922;-82
2023/08/13 03:09:20;;;;;;;;;;;20.70;99.90;;;;;;2056953;28;20301;-81
2023/08/13 03:10:20;;;;;;;;;;;20.70;99.90;;;;;;2055183;28;19914;-82
2023/08/13 03:11:21;;;;;;;;;;;20.70;99.90;;;;;;2059007;28;20025;-82
2023/08/13 03:12:23;;;;;;;;;;;20.70;99.90;;;;;;2055240;28;20337;-81
2023/08/13 03:13:23;;;;;;;;;;;20.70;99.90;;;;;;2047444;28;19922;-82
2023/08/13 03:14:24;;;;;;;;;;;20.70;99.90;;;;;;2052201;28;20440;-81
2023/08/13 03:15:25;;;;;;;;;;;20.70;99.90;;;;;;2056300;28;19924;-81
2023/08/13 03:16:26;;;;;;;;;;;20.70;99.90;;;;;;2058481;28;19921;-82
2023/08/13 03:17:27;;;;;;;;;;;20.70;99.90;;;;;;2049115;28;20298;-81
2023/08/13 03:18:27;;;;;;;;;;;20.70;99.90;;;;;;2049116;28;19921;-81
2023/08/13 03:19:29;;;;;;;;;;;20.70;99.90;;;;;;2049046;28;20236;-81
2023/08/13 03:20:31;;;;;;;;;;;20.70;99.90;;;;;;2048616;28;20000;-81
2023/08/13 03:21:31;;;;;;;;;;;20.70;99.90;;;;;;2044582;28;20392;-82
2023/08/13 03:22:32;;;;;;;;;;;20.70;99.90;;;;;;2047726;28;19921;-82
2023/08/13 03:23:33;;;;;;;;;;;20.70;99.90;;;;;;2046758;28;20406;-81
2023/08/13 03:24:34;;;;;;;;;;;20.70;99.90;;;;;;2052334;28;20432;-82
2023/08/13 03:25:34;;;;;;;;;;;20.70;99.90;;;;;;2058544;28;19925;-81
2023/08/13 03:26:35;;;;;;;;;;;20.70;99.90;;;;;;2055283;28;20084;-82
2023/08/13 03:27:37;;;;;;;;;;;20.70;99.90;;;;;;2040041;28;19927;-82
2023/08/13 03:28:39;;;;;;;;;;;20.70;99.90;;;;;;2041212;28;20437;-81
2023/08/13 03:29:46;;;;;;;;;;;20.70;99.90;;;;;;2048938;28;19914;-81
2023/08/13 03:30:47;;;;;;;;;;;20.70;99.90;;;;;;2049926;28;20298;-81
2023/08/13 03:31:48;;;;;;;;;;;20.60;99.90;;;;;;2046300;28;19937;-81
2023/08/13 03:32:54;;;;;;;;;;;20.60;99.90;;;;;;2058008;28;20369;-81
2023/08/13 03:33:57;;;;;;;;;;;20.50;99.90;;;;;;2056381;28;20052;-82
2023/08/13 03:34:59;;;;;;;;;;;20.50;99.90;;;;;;2054326;28;19918;-82
2023/08/13 03:35:59;;;;;;;;;;;20.50;99.90;;;;;;2059575;28;19933;-80
2023/08/13 03:37:00;;;;;;;;;;;20.50;99.90;;;;;;2048588;28;20428;-80
2023/08/13 03:38:00;;;;;;;;;;;20.40;99.90;;;;;;2053578;28;20331;-81
2023/08/13 03:39:01;;;;;;;;;;;20.40;99.90;;;;;;2058231;28;19928;-81
2023/08/13 03:40:01;;;;;;;;;;;20.40;99.90;;;;;;2039802;28;19932;-77
2023/08/13 03:41:02;;;;;;;;;;;20.40;99.90;;;;;;2036800;29;19949;-81
2023/08/13 03:42:03;;;;;;;;;;;20.30;99.90;;;;;;2051815;28;20316;-81
2023/08/13 03:43:03;;;;;;;;;;;20.30;99.90;;;;;;2058012;28;19929;-81
2023/08/13 03:44:04;;;;;;;;;;;20.30;99.90;;;;;;2056468;28;19914;-81
2023/08/13 03:45:05;;;;;;;;;;;20.30;99.90;;;;;;2046148;28;19944;-83
2023/08/13 03:46:05;;;;;;;;;;;20.30;99.90;;;;;;2049760;28;19926;-81
2023/08/13 03:47:06;;;;;;;;;;;20.30;99.90;;;;;;2058668;28;20291;-80
2023/08/13 03:48:06;;;;;;;;;;;20.30;99.90;;;;;;2061324;28;19921;-82
2023/08/13 03:49:07;;;;;;;;;;;20.30;99.90;;;;;;2059877;28;19932;-81
2023/08/13 03:50:08;;;;;;;;;;;20.30;99.90;;;;;;2058552;28;20389;-81
2023/08/13 03:51:09;;;;;;;;;;;20.30;99.90;;;;;;2058718;28;19917;-81
2023/08/13 03:52:12;;;;;;;;;;;20.30;99.90;;;;;;2053971;28;19914;-81
2023/08/13 03:53:12;;;;;;;;;;;20.30;99.90;;;;;;2046542;28;19914;-80
2023/08/13 03:54:14;;;;;;;;;;;20.30;99.90;;;;;;2057061;28;19981;-81
2023/08/13 03:55:16;;;;;;;;;;;20.40;99.90;;;;;;2050489;28;20044;-81
2023/08/13 03:56:16;;;;;;;;;;;20.30;99.90;;;;;;2052712;28;19921;-82
2023/08/13 03:57:17;;;;;;;;;;;20.40;99.90;;;;;;2055928;28;19917;-79
2023/08/13 03:58:18;;;;;;;;;;;20.40;99.90;;;;;;2052619;28;19925;-80
2023/08/13 03:59:19;;;;;;;;;;;20.40;99.90;;;;;;2050388;28;20020;-81
2023/08/13 04:00:20;;;;;;;;;;;20.40;99.90;;;;;;2050017;28;19918;-80
2023/08/13 04:01:20;;;;;;;;;;;20.40;99.90;;;;;;2033317;28;20006;-81
2023/08/13 04:02:25;;;;;;;;;;;20.40;99.90;;;;;;2035416;28;19919;-81
2023/08/13 04:03:25;;;;;;;;;;;20.40;99.90;;;;;;2049354;28;20567;-80
2023/08/13 04:04:26;;;;;;;;;;;20.40;99.90;;;;;;2043554;28;20119;-80
2023/08/13 04:05:26;;;;;;;;;;;20.40;99.90;;;;;;2050669;28;20306;-80
2023/08/13 04:06:27;;;;;;;;;;;20.50;99.90;;;;;;2044608;28;20151;-80
2023/08/13 04:07:27;;;;;;;;;;;20.50;99.90;;;;;;2051931;28;19926;-81
2023/08/13 04:08:28;;;;;;;;;;;20.50;99.90;;;;;;2045851;28;19984;-81
2023/08/13 04:09:28;;;;;;;;;;;20.50;99.90;;;;;;2045223;28;19922;-80
2023/08/13 04:10:29;;;;;;;;;;;20.50;99.90;;;;;;2062919;28;20451;-80
2023/08/13 04:11:29;;;;;;;;;;;20.50;99.90;;;;;;2057586;28;19918;-81
2023/08/13 04:12:30;;;;;;;;;;;20.50;99.90;;;;;;2066498;28;19957;-80
2023/08/13 04:13:30;;;;;;;;;;;20.50;99.90;;;;;;2066731;28;20386;-80
2023/08/13 04:14:31;;;;;;;;;;;20.50;99.90;;;;;;2051056;28;19918;-80
2023/08/13 04:15:32;;;;;;;;;;;20.50;99.90;;;;;;2048517;28;20029;-81
2023/08/13 04:16:32;;;;;;;;;;;20.50;99.90;;;;;;2046480;28;20317;-80
2023/08/13 04:17:33;;;;;;;;;;;20.60;99.90;;;;;;2054649;28;19924;-81
2023/08/13 04:18:34;;;;;;;;;;;20.60;99.90;;;;;;2054232;28;19918;-80
2023/08/13 04:19:35;;;;;;;;;;;20.50;99.90;;;;;;2054343;28;19965;-80
2023/08/13 04:20:39;;;;;;;;;;;20.60;99.90;;;;;;2057692;28;19928;-78
2023/08/13 04:21:40;;;;;;;;;;;20.60;99.90;;;;;;2042355;28;20023;-81
2023/08/13 04:22:42;;;;;;;;;;;20.60;99.90;;;;;;2043416;28;19918;-80
2023/08/13 04:23:42;;;;;;;;;;;20.60;99.90;;;;;;2058440;28;21043;-81
2023/08/13 04:24:47;;;;;;;;;;;20.60;99.90;;;;;;2054046;28;20309;-81
2023/08/13 04:25:48;;;;;;;;;;;20.70;99.90;;;;;;2059722;28;19917;-81
2023/08/13 04:26:48;;;;;;;;;;;20.60;99.90;;;;;;2060567;28;20294;-81
2023/08/13 04:27:51;;;;;;;;;;;20.70;99.90;;;;;;2058202;28;19990;-81
2023/08/13 04:28:52;;;;;;;;;;;20.70;99.90;;;;;;2050121;28;20423;-82
2023/08/13 04:29:52;;;;;;;;;;;20.70;99.90;;;;;;2048431;28;19925;-81
2023/08/13 04:30:54;;;;;;;;;;;20.70;99.90;;;;;;2056351;28;19922;-82
2023/08/13 04:31:54;;;;;;;;;;;20.70;99.90;;;;;;2048336;28;19921;-82
2023/08/13 04:32:56;;;;;;;;;;;20.70;99.90;;;;;;2037490;28;20446;-82
2023/08/13 04:33:58;;;;;;;;;;;20.70;99.90;;;;;;2039667;28;19922;-82
2023/08/13 04:34:59;;;;;;;;;;;20.70;99.90;;;;;;2046869;28;19914;-81
2023/08/13 04:36:03;;;;;;;;;;;20.70;99.90;;;;;;2052423;28;19917;-81
2023/08/13 04:37:05;;;;;;;;;;;20.80;99.90;;;;;;2055193;28;19920;-81
2023/08/13 04:38:06;;;;;;;;;;;20.80;99.90;;;;;;2057292;28;19917;-80
2023/08/13 04:39:12;;;;;;;;;;;20.80;99.90;;;;;;2058182;28;20107;-81
2023/08/13 04:40:13;;;;;;;;;;;20.80;99.90;;;;;;2058600;28;19936;-81
2023/08/13 04:41:13;;;;;;;;;;;20.80;99.90;;;;;;2057073;28;19922;-81
2023/08/13 04:42:16;;;;;;;;;;;20.80;99.90;;;;;;2062568;28;19925;-80
2023/08/13 04:43:17;;;;;;;;;;;20.80;99.90;;;;;;2056385;28;19921;-81
2023/08/13 04:44:17;;;;;;;;;;;20.80;99.90;;;;;;2052399;28;19921;-80
2023/08/13 04:45:19;;;;;;;;;;;20.80;99.90;;;;;;2055646;28;19925;-80
2023/08/13 04:46:20;;;;;;;;;;;20.80;99.90;;;;;;2060306;28;19950;-81
2023/08/13 04:47:29;;;;;;;;;;;20.80;99.90;;;;;;2060351;28;19921;-80
2023/08/13 04:48:45;;;;;;;;;;;20.80;99.90;;;;;;2050240;28;20385;-81
2023/08/13 04:49:46;;;;;;;;;;;20.80;99.90;;;;;;2053614;28;19925;-80
2023/08/13 04:50:46;;;;;;;;;;;20.80;99.90;;;;;;2044662;28;19919;-81
2023/08/13 04:51:47;;;;;;;;;;;20.80;99.90;;;;;;2054019;28;20341;-81
2023/08/13 04:52:48;;;;;;;;;;;20.80;99.90;;;;;;2055459;28;19917;-81
2023/08/13 04:53:51;;;;;;;;;;;20.80;99.90;;;;;;2050150;28;19922;-81
2023/08/13 04:54:53;;;;;;;;;;;20.80;99.90;;;;;;2054627;28;19918;-81
2023/08/13 04:55:57;;;;;;;;;;;20.80;99.90;;;;;;2054709;28;19928;-80
2023/08/13 04:56:58;;;;;;;;;;;20.80;99.90;;;;;;2060530;28;19929;-81
2023/08/13 04:57:58;;;;;;;;;;;20.90;99.90;;;;;;2053141;28;19977;-81
2023/08/13 04:58:59;;;;;;;;;;;20.90;99.90;;;;;;2048358;28;20341;-80
2023/08/13 05:00:00;;;;;;;;;;;20.90;99.90;;;;;;2052040;28;19918;-79
2023/08/13 05:01:06;;;;;;;;;;;20.90;99.90;;;;;;2049667;28;20012;-76
2023/08/13 05:02:08;;;;;;;;;;;21.00;99.90;;;;;;2053052;28;19918;-78
2023/08/13 05:03:10;;;;;;;;;;;21.00;99.90;;;;;;2050602;28;20838;-80
2023/08/13 05:04:12;;;;;;;;;;;21.00;99.90;;;;;;2045823;28;20001;-79
2023/08/13 05:05:12;;;;;;;;;;;21.00;99.90;;;;;;2050380;28;19923;-79
2023/08/13 05:06:13;;;;;;;;;;;21.10;99.90;;;;;;2055733;28;20020;-79
2023/08/13 05:07:14;;;;;;;;;;;21.10;99.90;;;;;;2058576;28;19918;-81
2023/08/13 05:08:16;;;;;;;;;;;21.20;99.90;;;;;;2052423;28;19922;-81
2023/08/13 05:09:17;;;;;;;;;;;21.20;99.90;;;;;;2049158;28;19918;-81
2023/08/13 05:10:18;;;;;;;;;;;21.30;99.90;;;;;;2051777;28;20376;-81
2023/08/13 05:11:20;;;;;;;;;;;21.30;99.90;;;;;;2055033;28;20495;-81
2023/08/13 05:12:21;;;;;;;;;;;21.40;99.90;;;;;;2049414;28;19950;-81
2023/08/13 05:13:22;;;;;;;;;;;21.40;99.90;;;;;;2058281;28;19922;-82
2023/08/13 05:14:22;;;;;;;;;;;21.40;99.90;;;;;;2051385;28;20017;-83
2023/08/13 05:15:23;;;;;;;;;;;21.50;99.90;;;;;;2048625;28;19914;-81
2023/08/13 05:16:23;;;;;;;;;;;21.50;99.90;;;;;;2045767;28;19993;-81
2023/08/13 05:17:26;;;;;;;;;;;21.50;99.90;;;;;;2057523;28;19918;-81
2023/08/13 05:18:26;;;;;;;;;;;21.50;99.90;;;;;;2058157;28;20356;-80
2023/08/13 05:19:27;;;;;;;;;;;21.40;99.90;;;;;;2052200;28;19914;-82
2023/08/13 05:20:27;;;;;;;;;;;21.40;99.90;;;;;;2048012;28;20471;-81
2023/08/13 05:21:28;;;;;;;;;;;21.40;99.90;;;;;;2054847;28;19921;-81
2023/08/13 05:22:28;;;;;;;;;;;21.50;99.90;;;;;;2054218;28;19952;-80
2023/08/13 05:23:29;;;;;;;;;;;21.50;99.90;;;;;;2042971;28;19974;-81
2023/08/13 05:24:29;;;;;;;;;;;21.50;99.90;;;;;;2048749;28;19914;-81
2023/08/13 05:25:30;;;;;;;;;;;21.50;99.90;;;;;;2050292;28;20579;-81
2023/08/13 05:26:30;;;;;;;;;;;21.50;99.90;;;;;;2058912;28;19914;-81
2023/08/13 05:27:31;;;;;;;;;;;21.60;99.90;;;;;;2059157;28;19929;-82
2023/08/13 05:28:32;;;;;;;;;;;21.90;99.90;;;;;;2060394;28;19929;-83
2023/08/13 05:29:34;;;;;;;;;;;22.10;99.90;;;;;;2050314;28;19922;-82
2023/08/13 05:30:37;;;;;;;;;;;22.40;99.90;;;;;;2048982;28;20401;-81
2023/08/13 05:31:38;;;;;;;;;;;22.80;99.90;;;;;;2046269;28;20317;-81
2023/08/13 05:32:40;;;;;;;;;;;23.20;99.90;;;;;;2050169;28;19914;-82
2023/08/13 05:33:41;;;;;;;;;;;23.50;99.90;;;;;;2051240;28;19954;-81
2023/08/13 05:34:41;;;;;;;;;;;23.80;99.90;;;;;;2051715;28;19918;-82
2023/08/13 05:35:42;;;;;;;;;;;24.00;99.90;;;;;;2049916;28;19918;-81
2023/08/13 05:36:43;;;;;;;;;;;24.10;99.90;;;;;;2052735;28;20028;-81
2023/08/13 05:37:44;;;;;;;;;;;24.20;99.90;;;;;;2059980;28;19968;-81
2023/08/13 05:38:44;;;;;;;;;;;24.10;99.90;;;;;;2055141;28;19937;-80
2023/08/13 05:39:45;;;;;;;;;;;24.10;99.90;;;;;;2049805;28;20034;-79
2023/08/13 05:40:47;;;;;;;;;;;24.10;99.90;;;;;;2045964;28;19946;-80
2023/08/13 05:41:47;;;;;;;;;;;24.00;99.90;;;;;;2050364;28;20378;-81
2023/08/13 05:42:48;;;;;;;;;;;23.90;99.90;;;;;;2056531;28;20025;-80
2023/08/13 05:43:49;;;;;;;;;;;23.70;99.90;;;;;;2045349;28;19926;-81
2023/08/13 05:44:49;;;;;;;;;;;23.50;99.90;;;;;;2045330;28;20454;-80
2023/08/13 05:45:51;;;;;;;;;;;23.50;99.90;;;;;;2053650;28;20005;-81
2023/08/13 05:46:51;;;;;;;;;;;23.50;99.90;;;;;;2052238;28;19918;-81
2023/08/13 05:47:52;;;;;;;;;;;23.60;99.90;;;;;;2045998;28;20025;-80
2023/08/13 05:48:53;;;;;;;;;;;23.60;99.90;;;;;;2048906;28;19922;-80
2023/08/13 05:49:54;;;;;;;;;;;23.80;99.90;;;;;;2046424;28;19918;-81
2023/08/13 05:50:54;;;;;;;;;;;24.10;99.90;;;;;;2042426;28;20390;-81
2023/08/13 05:51:55;;;;;;;;;;;24.30;99.90;;;;;;2047537;28;20401;-81
2023/08/13 05:52:55;;;;;;;;;;;24.70;99.90;;;;;;2055919;28;20381;-82
2023/08/13 05:53:56;;;;;;;;;;;25.00;99.90;;;;;;2056512;28;19921;-80
2023/08/13 05:54:56;;;;;;;;;;;25.20;99.90;;;;;;2062020;28;19992;-84
2023/08/13 05:55:58;;;;;;;;;;;25.50;99.90;;;;;;2060646;28;19984;-81
2023/08/13 05:56:58;;;;;;;;;;;25.80;99.90;;;;;;2052533;28;19950;-82